Terminal Aerodrome Forecast
Issued by NWS

Home | Current Version | Previous Version | Graphics & Text | Print | Product List | Glossary On
Versions: 1 2 3 4 5 6 7 8 9 10 11 12 13 14 15 16 17 18 19
000
FTUS43 KICT 271700
TAFCNU
TAF
KCNU 271721Z 2718/2818 20015G23KT P6SM BKN250
     FM272300 33012KT P6SM SCT050 BKN100
     FM280900 35007KT P6SM BKN200=

USA.gov is the U.S. government's official web portal to all federal, state and local government web resources and services.